Current Weather

Cambridge

Cambridge, United Kingdom (EGSC)

Report from: Tuesday, July 16, 2024 10:50 AM BST
Current time: Tuesday, July 16, 2024 11:11 AM BST

Nearby weather – Weather history – Daily summaries
Weather forecast

Temperature17.0°C (62.6°F)
Dew point14.0°C (57.2°F)
Winds 8 kts (4.1 m/s, 9.2 mph) West-Southwest (250°)
Visibility6.2 mi. (10 km)
Clouds Ceiling: Broken clouds 1,200 ft. (366 m)
Altimeter29.74 in.Hg (1007 mB)
Relative humidity83 %
Density altitude669 ft. (204 m)
Flight conditions Marginal Visual Meteorological Conditions
Raw dataEGSC 160950Z 25008KT 9999 BKN012 17/14 Q1007
An error has occurred. This application may no longer respond until reloaded. Reload 🗙